< Typhoon 199004 1990 Season Typhoon 199006 >
Typhoon 199005 (OFELIA)
General InformationTrack Information on Google MapsDetailed Wind InformationList of All Images || Disaster Info.ResourceGoogle EarthGE AnimationAtom FeedGeoJSON
Detalied Best Track (Time Zone = UTC)
Year Month Day Hour Lat. Long. Pressure (hPa) Wind (kt) Class Image Chart
1990 6 16 06 8.5 139.0 1004 0 2 Image Chart
1990 6 16 12 9.0 138.0 1006 0 2 Image Chart
1990 6 16 18 9.5 137.0 1002 0 2 Image Chart
1990 6 17 00 9.5 136.0 1000 0 2 Image Chart
1990 6 17 06 9.5 135.0 1000 0 2 Image Chart
1990 6 17 12 9.0 134.0 1000 0 2 Image Chart
1990 6 17 18 9.1 133.3 996 35 3 Image Chart
1990 6 18 00 9.3 132.5 994 35 3 Image Chart
1990 6 18 06 9.4 131.7 992 40 3 Image Chart
1990 6 18 12 9.5 131.0 992 40 3 Image Chart
1990 6 18 18 9.6 130.5 990 45 3 Image Chart
1990 6 19 00 9.7 130.0 990 45 3 Image Chart
1990 6 19 06 9.8 129.7 990 45 3 Image Chart
1990 6 19 12 9.9 129.4 990 45 3 Image Chart
1990 6 19 18 10.2 129.0 990 45 3 Image Chart
1990 6 20 00 10.6 128.6 985 50 4 Image Chart
1990 6 20 06 11.2 128.2 980 55 4 Image Chart
1990 6 20 12 12.2 127.5 980 55 4 Image Chart
1990 6 20 18 13.3 126.6 975 60 4 Image Chart
1990 6 21 00 14.4 126.0 975 60 4 Image Chart
1990 6 21 06 15.4 125.3 975 60 4 Image Chart
1990 6 21 12 16.5 124.6 975 60 4 Image Chart
1990 6 21 18 17.6 123.8 975 60 4 Image Chart
1990 6 22 00 18.8 122.7 975 60 4 Image Chart
1990 6 22 06 19.9 121.8 975 60 4 Image Chart
1990 6 22 12 20.2 121.5 975 60 4 Image Chart
1990 6 22 18 21.0 121.5 970 65 5 Image Chart
1990 6 23 00 22.3 121.6 970 65 5 Image Chart
1990 6 23 06 23.9 121.7 975 60 4 Image Chart
1990 6 23 12 25.1 121.1 980 55 4 Image Chart
1990 6 23 18 26.4 120.5 985 50 4 Image Chart
1990 6 24 00 28.0 120.5 994 35 3 Image Chart
1990 6 24 06 29.7 120.2 996 0 2 Image Chart
1990 6 24 12 31.4 120.0 996 0 2 Image Chart
1990 6 24 18 33.0 120.0 996 0 2 Image Chart
1990 6 25 00 34.0 121.0 996 0 2 Image Chart
1990 6 25 06 35.0 122.0 996 0 6 Image Chart
1990 6 25 12 36.0 123.0 996 0 6 Image Chart
1990 6 25 18 37.0 124.0 996 0 6 Image Chart
1990 6 26 00 37.0 125.0 998 0 6 Image Chart
Japan Meteorological Agency Best Track Data | Correction Date : 1992-10-21
< Typhoon 199004 1990 Season Typhoon 199006 >

Help